Time;durP1;ratioP1;P1;durP2;ratioP2;P2;SDS_P1;SDS_P2;PMS_P1;PMS_P2;Temp;Humidity;BMP_temperature;BMP_pressure;BME280_temperature;BME280_humidity;BME280_pressure;Samples;Min_cycle;Max_cycle;Signal;HPM_P1;HPM_P2
2021/12/19 00:01:02;;;;;;;11.05;6.05;;;18.10;64.70;;;;;;5002106;28;20036;-52
2021/12/19 00:08:56;;;;;;;7.63;5.60;;;18.00;64.40;;;;;;5001377;28;20044;-52
2021/12/19 00:11:22;;;;;;;6.30;5.28;;;18.10;64.50;;;;;;5002404;28;20030;-51
2021/12/19 00:13:48;;;;;;;6.38;5.70;;;18.00;64.40;;;;;;4984900;28;20131;-53
2021/12/19 00:16:13;;;;;;;6.57;5.47;;;18.00;64.40;;;;;;5001870;28;20057;-52
2021/12/19 00:18:42;;;;;;;6.50;4.68;;;18.10;64.40;;;;;;5001792;28;20034;-53
2021/12/19 00:21:10;;;;;;;7.20;5.68;;;18.10;64.30;;;;;;5001436;28;20046;-54
2021/12/19 00:23:36;;;;;;;5.30;4.80;;;18.00;64.20;;;;;;5001981;28;20125;-54
2021/12/19 00:26:01;;;;;;;6.15;4.55;;;18.00;64.20;;;;;;5001967;28;20529;-54
2021/12/19 00:28:27;;;;;;;6.40;4.90;;;18.10;64.20;;;;;;5001758;28;20401;-50
2021/12/19 00:30:53;;;;;;;5.70;4.63;;;18.00;64.00;;;;;;5002808;28;20061;-51
2021/12/19 00:33:18;;;;;;;4.75;4.25;;;18.00;64.00;;;;;;5000763;28;20498;-54
2021/12/19 00:35:43;;;;;;;6.18;4.72;;;18.00;63.90;;;;;;5002164;28;20072;-52
2021/12/19 00:38:09;;;;;;;6.25;4.10;;;18.00;63.90;;;;;;5002198;28;20030;-51
2021/12/19 00:40:36;;;;;;;5.43;3.60;;;18.00;63.90;;;;;;5001666;28;20064;-51
2021/12/19 00:43:05;;;;;;;6.13;4.35;;;18.00;63.80;;;;;;5002652;28;20022;-51
2021/12/19 00:45:33;;;;;;;5.43;4.03;;;18.00;63.80;;;;;;5002436;28;20026;-52
2021/12/19 00:48:00;;;;;;;5.05;4.00;;;18.00;63.80;;;;;;5001587;28;20034;-53
2021/12/19 00:50:25;;;;;;;5.55;4.18;;;18.00;63.70;;;;;;5000629;28;20037;-52
2021/12/19 00:52:51;;;;;;;5.05;3.78;;;18.00;63.70;;;;;;5002247;28;20375;-52
2021/12/19 00:55:17;;;;;;;5.68;3.80;;;18.00;63.60;;;;;;5001794;28;20117;-50
2021/12/19 00:57:43;;;;;;;3.95;3.47;;;18.00;63.60;;;;;;5002279;28;20823;-51
2021/12/19 01:00:13;;;;;;;6.82;3.85;;;18.00;63.60;;;;;;5001708;28;20030;-50
2021/12/19 01:02:38;;;;;;;4.82;3.42;;;18.00;63.50;;;;;;5001307;28;20057;-51
2021/12/19 01:05:04;;;;;;;3.92;3.50;;;18.00;63.50;;;;;;5002316;28;20030;-52
2021/12/19 01:07:30;;;;;;;6.65;4.05;;;18.00;63.50;;;;;;5002012;28;20057;-52
2021/12/19 01:09:56;;;;;;;4.03;3.33;;;18.00;63.40;;;;;;5001545;28;20057;-51
2021/12/19 01:12:22;;;;;;;3.92;3.42;;;18.00;63.40;;;;;;5001758;28;20041;-54
2021/12/19 01:14:48;;;;;;;5.03;3.40;;;18.00;63.30;;;;;;5001678;28;20030;-52
2021/12/19 01:17:13;;;;;;;4.40;3.15;;;18.00;63.20;;;;;;5001529;28;20413;-52
2021/12/19 01:19:39;;;;;;;5.18;3.10;;;18.00;63.20;;;;;;5001241;28;20033;-51
2021/12/19 01:22:04;;;;;;;4.15;3.20;;;18.00;63.10;;;;;;5003234;28;20041;-55
2021/12/19 01:24:30;;;;;;;4.45;2.92;;;18.00;63.10;;;;;;5004626;28;20180;-54
2021/12/19 01:26:56;;;;;;;3.75;2.88;;;18.00;63.10;;;;;;5004663;28;20056;-55
2021/12/19 01:29:21;;;;;;;3.17;2.70;;;18.00;63.10;;;;;;5005030;28;20042;-55
2021/12/19 01:31:47;;;;;;;4.28;2.78;;;18.00;63.10;;;;;;5004073;28;20029;-52
2021/12/19 01:34:13;;;;;;;3.35;3.00;;;18.00;63.00;;;;;;5004851;28;20061;-55
2021/12/19 01:36:42;;;;;;;3.20;2.70;;;17.90;63.00;;;;;;5004270;28;20034;-53
2021/12/19 01:39:08;;;;;;;3.75;2.28;;;18.00;63.00;;;;;;5004439;28;20068;-52
2021/12/19 01:41:33;;;;;;;3.10;2.80;;;18.00;63.00;;;;;;5004980;28;20033;-53
2021/12/19 01:43:59;;;;;;;2.97;2.70;;;18.00;62.90;;;;;;5002967;28;20428;-56
2021/12/19 01:46:24;;;;;;;4.78;2.72;;;18.00;62.90;;;;;;5004765;28;20706;-52
2021/12/19 01:48:50;;;;;;;2.70;2.10;;;18.00;62.80;;;;;;5003832;28;20126;-53
2021/12/19 01:51:15;;;;;;;4.30;2.40;;;17.90;62.80;;;;;;5003671;28;20042;-56
2021/12/19 01:53:41;;;;;;;3.47;2.60;;;18.00;62.80;;;;;;5003854;28;20553;-53
2021/12/19 01:56:07;;;;;;;3.35;2.30;;;18.00;62.90;;;;;;5001810;28;20036;-54
2021/12/19 01:58:34;;;;;;;3.08;2.30;;;18.00;62.70;;;;;;5004247;28;20030;-51
2021/12/19 02:00:59;;;;;;;3.75;2.60;;;17.90;62.60;;;;;;5001857;28;20037;-51
2021/12/19 02:03:25;;;;;;;3.20;2.47;;;17.90;62.60;;;;;;5004868;28;20507;-54
2021/12/19 02:05:51;;;;;;;3.00;2.05;;;18.00;62.70;;;;;;5002287;28;20551;-51
2021/12/19 02:08:17;;;;;;;2.22;2.03;;;18.00;62.60;;;;;;5003840;28;20453;-53
2021/12/19 02:10:42;;;;;;;2.80;2.50;;;18.00;62.60;;;;;;5004771;28;20057;-51
2021/12/19 02:13:10;;;;;;;3.40;2.17;;;17.90;62.50;;;;;;5004761;28;20125;-51
2021/12/19 02:15:36;;;;;;;2.50;2.13;;;17.90;62.40;;;;;;5002667;28;20072;-55
2021/12/19 02:18:05;;;;;;;2.22;2.03;;;17.90;62.40;;;;;;5002690;28;20045;-50
2021/12/19 02:20:36;;;;;;;2.83;2.20;;;17.90;62.40;;;;;;5003256;28;20377;-54
2021/12/19 02:23:02;;;;;;;2.38;2.17;;;17.90;63.00;;;;;;5002873;28;20026;-50
2021/12/19 02:25:27;;;;;;;2.58;2.25;;;17.90;62.30;;;;;;5004536;28;20069;-52
2021/12/19 02:27:53;;;;;;;2.10;1.85;;;17.90;62.30;;;;;;5004256;28;20105;-50
2021/12/19 02:30:19;;;;;;;2.10;1.88;;;17.90;62.30;;;;;;4982627;28;20038;-51
2021/12/19 02:32:44;;;;;;;2.05;1.90;;;17.90;63.00;;;;;;5002264;28;20030;-50
2021/12/19 02:35:14;;;;;;;2.55;2.10;;;17.90;62.40;;;;;;5003780;28;20504;-57
2021/12/19 02:40:29;;;;;;;3.35;2.03;;;17.80;62.30;;;;;;5001821;28;20026;-50
2021/12/19 02:48:26;;;;;;;3.22;2.38;;;17.80;62.20;;;;;;5003085;28;20092;-50
2021/12/19 02:50:53;;;;;;;2.55;2.17;;;17.80;62.30;;;;;;5002163;28;20524;-51
2021/12/19 02:53:35;;;;;;;2.15;1.80;;;17.80;62.30;;;;;;5003221;28;20044;-53
2021/12/19 02:56:02;;;;;;;2.28;2.03;;;17.80;62.30;;;;;;5002911;28;20340;-51
2021/12/19 02:58:28;;;;;;;2.42;1.90;;;17.80;62.30;;;;;;5001534;28;20030;-53
2021/12/19 03:00:54;;;;;;;1.95;1.67;;;17.80;62.30;;;;;;5004297;28;20030;-54
2021/12/19 03:03:20;;;;;;;1.77;1.40;;;17.80;62.30;;;;;;5002684;28;20045;-53
2021/12/19 03:05:46;;;;;;;2.65;1.50;;;17.70;62.80;;;;;;5004155;28;20037;-51
2021/12/19 03:08:12;;;;;;;1.92;1.63;;;17.80;62.20;;;;;;5002394;28;20045;-51
2021/12/19 03:11:26;;;;;;;2.03;1.60;;;17.70;62.20;;;;;;5002831;28;20105;-52
2021/12/19 03:19:09;;;;;;;2.58;1.90;;;17.70;62.20;;;;;;4999992;28;20401;-55
2021/12/19 03:21:34;;;;;;;1.75;1.60;;;17.70;62.10;;;;;;5003218;28;20042;-50
2021/12/19 03:24:00;;;;;;;1.70;1.60;;;17.70;62.10;;;;;;5002920;28;20045;-55
2021/12/19 03:26:25;;;;;;;2.08;1.33;;;17.60;62.10;;;;;;5003066;28;20029;-55
2021/12/19 03:28:51;;;;;;;3.20;2.15;;;17.70;62.10;;;;;;5002546;28;20029;-52
2021/12/19 03:31:16;;;;;;;1.98;1.80;;;17.70;62.10;;;;;;5000795;28;20575;-53
2021/12/19 03:33:42;;;;;;;2.63;1.58;;;17.70;62.10;;;;;;4995002;28;20568;-55
2021/12/19 03:36:08;;;;;;;2.83;1.40;;;17.70;62.10;;;;;;5002210;28;20103;-51
2021/12/19 03:38:38;;;;;;;3.25;1.73;;;17.70;62.00;;;;;;5002859;28;20082;-54
2021/12/19 03:43:36;;;;;;;2.88;1.58;;;17.70;61.90;;;;;;5002969;28;20030;-55
2021/12/19 03:46:01;;;;;;;1.70;1.23;;;17.70;61.80;;;;;;5002377;28;20030;-54
2021/12/19 03:48:27;;;;;;;2.63;1.50;;;17.70;61.80;;;;;;5002144;28;20057;-53
2021/12/19 03:50:52;;;;;;;3.35;1.52;;;17.80;61.70;;;;;;5003097;28;20090;-51
2021/12/19 03:53:19;;;;;;;2.92;1.30;;;17.80;61.70;;;;;;5001547;28;20052;-51
2021/12/19 03:55:45;;;;;;;1.85;1.75;;;17.80;61.50;;;;;;5000904;28;20613;-52
2021/12/19 03:58:11;;;;;;;2.03;1.35;;;17.80;61.40;;;;;;5002510;28;20022;-54
2021/12/19 04:00:36;;;;;;;3.35;1.83;;;17.90;61.30;;;;;;5002221;28;20060;-56
2021/12/19 04:03:04;;;;;;;3.88;1.38;;;17.90;61.00;;;;;;5001979;28;20436;-51
2021/12/19 04:05:30;;;;;;;1.85;1.45;;;17.90;60.80;;;;;;4999710;28;20030;-51
2021/12/19 04:07:56;;;;;;;2.05;1.33;;;18.00;60.70;;;;;;5002592;28;20026;-52
2021/12/19 04:10:22;;;;;;;3.10;1.45;;;18.00;60.60;;;;;;4988456;28;20052;-51
2021/12/19 04:12:48;;;;;;;2.10;1.48;;;18.00;60.50;;;;;;5009693;28;20034;-54
2021/12/19 04:15:14;;;;;;;2.08;1.33;;;18.00;60.50;;;;;;5001806;28;20033;-52
2021/12/19 04:17:39;;;;;;;1.88;1.40;;;18.00;60.40;;;;;;4999784;28;20685;-51
2021/12/19 04:20:05;;;;;;;2.38;1.20;;;18.10;60.40;;;;;;5001665;28;20401;-53
2021/12/19 04:22:31;;;;;;;2.70;1.50;;;18.10;60.30;;;;;;5001942;28;20112;-53
2021/12/19 04:24:56;;;;;;;3.08;1.48;;;18.10;60.30;;;;;;5002472;28;20033;-53
2021/12/19 04:27:22;;;;;;;1.65;1.48;;;18.10;60.20;;;;;;4999712;28;20432;-55
2021/12/19 04:29:49;;;;;;;2.85;1.73;;;18.10;60.20;;;;;;5001665;28;20045;-53
2021/12/19 04:32:17;;;;;;;2.30;1.20;;;18.10;60.10;;;;;;5001748;28;20022;-53
2021/12/19 04:34:42;;;;;;;1.63;1.10;;;18.10;60.10;;;;;;5000514;28;20033;-55
2021/12/19 04:39:58;;;;;;;2.08;1.05;;;18.20;60.10;;;;;;5001779;28;20045;-56
2021/12/19 05:01:11;;;;;;;2.88;1.10;;;18.20;59.70;;;;;;5006028;28;20072;-52
2021/12/19 05:03:50;;;;;;;1.98;1.20;;;18.30;59.70;;;;;;5005246;28;20032;-50
2021/12/19 05:06:47;;;;;;;1.50;1.08;;;18.30;59.60;;;;;;5006231;28;20038;-50
2021/12/19 05:14:44;;;;;;;;;;;18.30;59.40;;;;;;4985928;28;20033;-55
2021/12/19 05:17:16;;;;;;;2.08;1.25;;;18.30;59.30;;;;;;5004495;28;19909;-53
2021/12/19 05:19:51;;;;;;;1.73;1.10;;;18.30;59.30;;;;;;5004533;28;20091;-53
2021/12/19 05:22:18;;;;;;;3.07;1.57;;;18.30;59.20;;;;;;5003844;28;20100;-52
2021/12/19 05:25:00;;;;;;;2.53;1.05;;;18.30;59.20;;;;;;5005194;28;20034;-52
2021/12/19 05:27:25;;;;;;;2.72;1.40;;;18.30;59.20;;;;;;4995553;28;20026;-54
2021/12/19 05:29:51;;;;;;;1.98;1.23;;;18.30;59.10;;;;;;5005019;28;20034;-56
2021/12/19 05:32:16;;;;;;;1.98;1.30;;;18.30;59.10;;;;;;5005186;28;20072;-53
2021/12/19 05:34:42;;;;;;;1.60;1.20;;;18.40;59.10;;;;;;5005693;28;20393;-51
2021/12/19 05:45:20;;;;;;;1.48;0.93;;;18.30;58.90;;;;;;5004732;28;20084;-54
2021/12/19 05:47:48;;;;;;;1.13;0.98;;;18.30;58.80;;;;;;5004445;28;20025;-56
2021/12/19 05:50:14;;;;;;;2.22;1.33;;;18.30;58.80;;;;;;5004552;28;20034;-52
2021/12/19 05:52:40;;;;;;;2.42;1.15;;;18.30;58.80;;;;;;5006530;28;20044;-54
2021/12/19 05:55:06;;;;;;;1.58;1.20;;;18.30;58.80;;;;;;5005273;28;20018;-55
2021/12/19 05:57:32;;;;;;;1.42;1.17;;;18.30;58.80;;;;;;5005011;28;20026;-54
2021/12/19 05:59:58;;;;;;;2.75;1.33;;;18.40;58.80;;;;;;5002820;28;20085;-58
2021/12/19 06:02:24;;;;;;;1.48;1.25;;;18.30;58.70;;;;;;5003693;28;20022;-52
2021/12/19 06:04:49;;;;;;;2.08;1.38;;;18.30;58.70;;;;;;5004240;28;20126;-53
2021/12/19 06:07:15;;;;;;;2.20;1.23;;;18.30;58.70;;;;;;5004250;28;20141;-56
2021/12/19 06:09:40;;;;;;;2.22;1.35;;;18.30;58.60;;;;;;5004543;28;20037;-53
2021/12/19 06:12:06;;;;;;;2.10;1.30;;;18.30;58.70;;;;;;5004278;28;20137;-56
2021/12/19 06:14:33;;;;;;;1.48;1.10;;;18.30;58.60;;;;;;5004065;28;20080;-53
2021/12/19 06:17:02;;;;;;;2.17;1.25;;;18.30;58.70;;;;;;5004440;28;20152;-53
2021/12/19 06:19:28;;;;;;;1.63;1.10;;;18.30;58.60;;;;;;5003975;28;20056;-52
2021/12/19 06:21:54;;;;;;;1.35;1.25;;;18.30;58.70;;;;;;5004901;28;20050;-52
2021/12/19 06:24:19;;;;;;;2.05;1.20;;;18.30;58.60;;;;;;5003716;28;20045;-53
2021/12/19 06:26:45;;;;;;;1.92;1.30;;;18.30;58.50;;;;;;5002818;28;20038;-51
2021/12/19 06:29:10;;;;;;;1.20;1.10;;;18.30;58.50;;;;;;5003462;28;20029;-53
2021/12/19 06:31:36;;;;;;;1.33;1.15;;;18.30;58.50;;;;;;5003250;28;20030;-54
2021/12/19 06:34:01;;;;;;;1.83;1.52;;;18.30;58.40;;;;;;5003782;28;20026;-51
2021/12/19 06:36:27;;;;;;;1.95;1.75;;;18.30;58.50;;;;;;5003849;28;20072;-54
2021/12/19 06:38:52;;;;;;;1.33;1.20;;;18.30;58.50;;;;;;5003609;28;20583;-51
2021/12/19 06:41:18;;;;;;;1.55;1.30;;;18.30;58.30;;;;;;5003238;28;20097;-52
2021/12/19 06:43:44;;;;;;;2.08;1.17;;;18.30;58.40;;;;;;5003204;28;20092;-54
2021/12/19 06:46:09;;;;;;;2.80;1.50;;;18.30;58.40;;;;;;5003988;28;20026;-54
2021/12/19 06:48:35;;;;;;;3.00;1.17;;;18.30;58.30;;;;;;5003156;28;20041;-55
2021/12/19 06:51:00;;;;;;;2.90;1.10;;;18.30;58.30;;;;;;5028120;22;20471;-62
2021/12/19 06:53:26;;;;;;;1.77;1.02;;;18.30;58.30;;;;;;5024270;28;20533;-63
2021/12/19 06:55:51;;;;;;;1.65;1.52;;;18.30;58.30;;;;;;5026420;28;20112;-63
2021/12/19 06:58:17;;;;;;;2.47;1.50;;;18.30;58.30;;;;;;5026538;28;20022;-62
2021/12/19 07:00:42;;;;;;;3.40;1.30;;;18.30;58.30;;;;;;5018120;28;20026;-62
2021/12/19 07:03:10;;;;;;;1.50;1.40;;;18.30;58.30;;;;;;5006190;28;20109;-61
2021/12/19 07:05:36;;;;;;;3.33;1.40;;;18.30;58.30;;;;;;5003738;28;20518;-63
2021/12/19 07:08:01;;;;;;;1.77;1.27;;;18.30;58.30;;;;;;5004902;28;20691;-62
2021/12/19 07:10:27;;;;;;;1.75;1.15;;;18.30;58.30;;;;;;5005295;28;20084;-63
2021/12/19 07:12:53;;;;;;;1.92;1.45;;;18.30;58.30;;;;;;5004943;28;20100;-61
2021/12/19 07:15:18;;;;;;;1.73;1.40;;;18.30;58.30;;;;;;5004810;28;20076;-62
2021/12/19 07:17:44;;;;;;;1.48;1.27;;;18.30;58.30;;;;;;5005545;28;20104;-63
2021/12/19 07:20:10;;;;;;;2.55;1.50;;;18.30;58.30;;;;;;5005101;28;20034;-61
2021/12/19 07:22:35;;;;;;;2.28;1.30;;;18.30;58.30;;;;;;5005750;28;20125;-63
2021/12/19 07:25:01;;;;;;;3.40;1.45;;;18.30;58.30;;;;;;5006462;28;20038;-61
2021/12/19 07:27:26;;;;;;;3.20;1.50;;;18.30;58.30;;;;;;5006198;28;20034;-60
2021/12/19 07:29:56;;;;;;;1.40;1.13;;;18.30;58.30;;;;;;5005917;28;20375;-52
2021/12/19 07:32:21;;;;;;;1.98;1.10;;;18.30;58.30;;;;;;5006127;28;20105;-57
2021/12/19 07:34:48;;;;;;;2.03;1.20;;;18.30;58.30;;;;;;5006718;28;20148;-62
2021/12/19 07:37:13;;;;;;;1.15;1.05;;;18.30;58.20;;;;;;5006522;28;20041;-62
2021/12/19 07:39:51;;;;;;;2.47;1.27;;;18.30;58.30;;;;;;5006327;28;20037;-57
2021/12/19 07:42:17;;;;;;;1.63;1.23;;;18.30;58.20;;;;;;5006413;28;20033;-63
2021/12/19 07:44:42;;;;;;;1.20;1.10;;;18.30;58.20;;;;;;5007291;28;20033;-62
2021/12/19 07:47:08;;;;;;;1.70;0.88;;;18.30;58.30;;;;;;5006401;28;20098;-62
2021/12/19 07:49:34;;;;;;;1.60;1.30;;;18.30;58.20;;;;;;5006962;28;20061;-63
2021/12/19 07:51:59;;;;;;;1.48;1.20;;;18.30;58.20;;;;;;5005903;28;20032;-60
2021/12/19 07:54:25;;;;;;;1.67;1.20;;;18.20;58.20;;;;;;5004971;28;20018;-63
2021/12/19 07:56:51;;;;;;;2.13;1.38;;;18.30;58.20;;;;;;5005519;28;20030;-62
2021/12/19 07:59:17;;;;;;;1.30;1.20;;;18.20;58.20;;;;;;5005944;28;20105;-58
2021/12/19 08:01:43;;;;;;;1.70;1.35;;;18.20;58.20;;;;;;5004148;28;20108;-60
2021/12/19 08:04:08;;;;;;;2.00;1.30;;;18.30;58.20;;;;;;5004414;28;20619;-56
2021/12/19 08:06:33;;;;;;;3.92;1.60;;;18.30;58.20;;;;;;5006254;28;20022;-61
2021/12/19 08:09:07;;;;;;;2.38;1.38;;;18.20;58.20;;;;;;5001844;28;20433;-54
2021/12/19 08:11:42;;;;;;;9.35;2.03;;;18.20;58.30;;;;;;4994563;28;20408;-62
2021/12/19 08:14:12;;;;;;;4.93;1.92;;;18.30;58.50;;;;;;5000844;28;20406;-61
2021/12/19 08:16:38;;;;;;;6.03;1.58;;;18.30;58.80;;;;;;5010608;28;20167;-57
2021/12/19 08:19:04;;;;;;;10.50;2.28;;;18.30;59.20;;;;;;5009154;28;20030;-57
2021/12/19 08:21:29;;;;;;;2.95;2.17;;;18.30;60.10;;;;;;5004629;28;20037;-62
2021/12/19 08:23:58;;;;;;;12.70;8.73;;;18.30;59.60;;;;;;5004660;28;20030;-62
2021/12/19 08:26:25;;;;;;;13.60;11.45;;;18.30;59.90;;;;;;5005576;28;20036;-60
2021/12/19 08:28:50;;;;;;;12.40;10.20;;;18.30;59.90;;;;;;5005037;28;20206;-64
2021/12/19 08:31:16;;;;;;;14.40;10.35;;;18.30;59.70;;;;;;5007755;28;20037;-62
2021/12/19 08:33:41;;;;;;;10.63;9.30;;;18.30;59.40;;;;;;5009926;28;20025;-61
2021/12/19 08:36:07;;;;;;;11.27;8.60;;;18.30;59.20;;;;;;5009535;28;20052;-62
2021/12/19 08:38:33;;;;;;;11.77;7.70;;;18.30;58.90;;;;;;5006994;28;20036;-62
2021/12/19 08:40:59;;;;;;;12.32;7.70;;;18.20;58.70;;;;;;5010409;28;20587;-62
2021/12/19 08:43:24;;;;;;;9.52;7.47;;;18.20;58.60;;;;;;5009548;28;20029;-60
2021/12/19 08:45:50;;;;;;;11.77;9.35;;;18.20;58.50;;;;;;5004873;28;20033;-61
2021/12/19 08:48:18;;;;;;;14.60;8.88;;;18.20;58.70;;;;;;5009019;28;20466;-61
2021/12/19 08:50:44;;;;;;;12.38;8.20;;;18.20;58.60;;;;;;5008449;28;20026;-64
2021/12/19 08:53:09;;;;;;;8.02;6.97;;;18.20;58.50;;;;;;5009253;28;20044;-62
2021/12/19 08:55:35;;;;;;;11.82;8.30;;;18.20;58.30;;;;;;5008979;28;20083;-63
2021/12/19 08:58:00;;;;;;;10.15;7.95;;;18.20;58.20;;;;;;5009225;28;20022;-59
2021/12/19 09:00:26;;;;;;;7.70;6.72;;;18.20;58.10;;;;;;5008658;28;20022;-61
2021/12/19 09:02:54;;;;;;;7.70;7.00;;;18.20;58.00;;;;;;5008206;28;20030;-63
2021/12/19 09:05:20;;;;;;;11.13;6.85;;;18.20;58.00;;;;;;5009145;28;20022;-63
2021/12/19 09:07:46;;;;;;;6.68;6.05;;;18.20;57.90;;;;;;5009368;28;20087;-62
2021/12/19 09:10:11;;;;;;;7.32;5.78;;;18.20;57.80;;;;;;5008583;28;20025;-62
2021/12/19 09:12:37;;;;;;;7.50;6.03;;;18.20;57.70;;;;;;5009099;28;20025;-60
2021/12/19 09:15:03;;;;;;;8.95;5.50;;;18.20;57.60;;;;;;5009433;28;20076;-62
2021/12/19 09:17:29;;;;;;;6.40;5.18;;;18.20;57.60;;;;;;5008702;28;20497;-62
2021/12/19 09:19:54;;;;;;;5.65;5.15;;;18.20;57.50;;;;;;5009369;28;20041;-60
2021/12/19 09:22:20;;;;;;;7.65;5.97;;;18.20;57.50;;;;;;5009623;28;20030;-62
2021/12/19 09:24:45;;;;;;;5.45;4.95;;;18.20;57.40;;;;;;5009491;28;20018;-61
2021/12/19 09:27:11;;;;;;;6.28;5.68;;;18.20;57.40;;;;;;5008963;28;20030;-61
2021/12/19 09:29:36;;;;;;;80.30;39.92;;;18.20;57.50;;;;;;5008927;28;20054;-63
2021/12/19 09:32:02;;;;;;;110.00;49.83;;;18.20;58.80;;;;;;5008365;28;20056;-60
2021/12/19 09:34:28;;;;;;;89.82;46.38;;;18.20;59.30;;;;;;5008481;28;20022;-65
2021/12/19 09:36:54;;;;;;;80.95;42.78;;;18.20;59.10;;;;;;5007641;28;20034;-62
2021/12/19 09:39:20;;;;;;;81.70;41.83;;;18.30;59.50;;;;;;5013795;28;20022;-63
2021/12/19 09:41:46;;;;;;;76.45;39.10;;;18.20;58.80;;;;;;5007707;28;20714;-63
2021/12/19 09:44:14;;;;;;;75.28;41.75;;;18.20;58.60;;;;;;5007457;28;20105;-65
2021/12/19 09:46:41;;;;;;;153.52;79.18;;;18.20;58.70;;;;;;5011020;28;20052;-61
2021/12/19 09:49:07;;;;;;;161.88;87.78;;;18.10;58.80;;;;;;5003312;28;20015;-63
2021/12/19 09:51:33;;;;;;;162.23;89.20;;;18.00;58.90;;;;;;5007313;28;20520;-60
2021/12/19 09:53:58;;;;;;;152.25;88.68;;;18.00;59.10;;;;;;5008259;28;20034;-61
2021/12/19 09:56:24;;;;;;;165.65;93.47;;;18.00;59.20;;;;;;5008695;28;20022;-61
2021/12/19 09:58:50;;;;;;;160.57;87.38;;;18.00;59.40;;;;;;5008148;28;20724;-57
2021/12/19 10:01:15;;;;;;;160.98;81.30;;;18.00;59.50;;;;;;5007884;28;20037;-62
2021/12/19 10:03:41;;;;;;;148.23;79.30;;;17.90;59.60;;;;;;4123066;28;10000688;-62
2021/12/19 10:06:14;;;;;;;130.43;73.97;;;17.90;59.60;;;;;;5008290;28;20037;-62
2021/12/19 10:08:40;;;;;;;137.20;73.45;;;17.90;59.70;;;;;;5007775;28;20635;-61
2021/12/19 10:11:13;;;;;;;127.30;67.60;;;17.90;59.70;;;;;;5008333;28;20026;-62
2021/12/19 10:13:39;;;;;;;118.30;64.97;;;17.90;59.80;;;;;;5008379;28;20025;-64
2021/12/19 10:16:24;;;;;;;127.22;67.85;;;17.90;59.80;;;;;;5008180;28;20635;-62
2021/12/19 10:18:51;;;;;;;107.78;59.17;;;17.90;59.90;;;;;;5006355;28;20040;-62
2021/12/19 10:21:18;;;;;;;107.72;56.83;;;17.90;60.00;;;;;;5008193;28;20034;-62
2021/12/19 10:23:44;;;;;;;108.40;57.83;;;17.90;60.00;;;;;;5006198;28;20034;-62
2021/12/19 10:26:10;;;;;;;108.72;56.30;;;17.90;60.70;;;;;;4990266;28;20537;-66
2021/12/19 10:28:55;;;;;;;102.22;55.05;;;17.90;60.10;;;;;;5007217;28;20060;-64
2021/12/19 10:31:22;;;;;;;98.97;54.10;;;17.90;60.10;;;;;;5004684;28;20053;-65
2021/12/19 10:33:48;;;;;;;102.05;52.72;;;17.90;60.20;;;;;;5007279;28;20025;-62
2021/12/19 10:36:13;;;;;;;96.70;49.35;;;17.90;60.20;;;;;;5008765;28;20028;-61
2021/12/19 10:38:42;;;;;;;95.82;50.03;;;17.90;60.30;;;;;;5008077;28;20053;-62
2021/12/19 10:41:11;;;;;;;91.90;49.90;;;17.90;60.30;;;;;;5006641;28;20018;-64
2021/12/19 10:43:47;;;;;;;83.28;47.17;;;17.90;60.30;;;;;;5007385;28;20022;-63
2021/12/19 10:46:12;;;;;;;89.32;47.33;;;17.90;60.30;;;;;;5007271;28;20029;-67
2021/12/19 10:48:39;;;;;;;88.43;46.80;;;17.90;60.20;;;;;;5007536;28;20029;-62
2021/12/19 10:51:11;;;;;;;76.75;42.40;;;17.90;60.00;;;;;;5006939;28;20022;-64
2021/12/19 10:53:38;;;;;;;73.53;41.10;;;17.90;59.80;;;;;;5006478;28;20032;-64
2021/12/19 10:56:07;;;;;;;73.07;41.55;;;17.90;59.70;;;;;;5006844;28;20017;-67
2021/12/19 10:58:48;;;;;;;73.03;39.13;;;17.90;59.60;;;;;;5005457;28;20030;-64
2021/12/19 11:01:29;;;;;;;71.72;38.40;;;17.90;59.50;;;;;;5006831;28;20107;-63
2021/12/19 11:04:16;;;;;;;62.33;35.42;;;17.90;59.50;;;;;;5006866;28;20026;-64
2021/12/19 11:06:56;;;;;;;55.67;30.48;;;17.90;59.40;;;;;;5007190;28;20028;-62
2021/12/19 11:09:32;;;;;;;55.42;29.17;;;17.90;59.20;;;;;;5005552;28;20034;-64
2021/12/19 11:12:02;;;;;;;49.60;28.48;;;17.90;59.20;;;;;;5006685;28;20621;-61
2021/12/19 11:14:31;;;;;;;55.42;29.48;;;17.80;59.10;;;;;;5006860;28;20061;-64
2021/12/19 11:17:02;;;;;;;47.13;27.13;;;17.90;59.10;;;;;;5006777;28;20026;-64
2021/12/19 11:19:28;;;;;;;54.50;27.48;;;17.80;59.00;;;;;;5006633;28;20037;-62
2021/12/19 11:21:53;;;;;;;53.50;29.95;;;17.80;58.90;;;;;;5006644;28;20022;-65
2021/12/19 11:24:21;;;;;;;43.00;26.08;;;17.80;58.70;;;;;;5006803;28;20036;-68
2021/12/19 11:26:48;;;;;;;46.10;24.92;;;17.90;58.60;;;;;;5006231;28;20123;-63
2021/12/19 11:29:14;;;;;;;42.33;24.05;;;17.90;58.60;;;;;;5005771;28;20032;-64
2021/12/19 11:31:41;;;;;;;37.55;23.75;;;17.80;58.60;;;;;;5004703;28;20022;-64
2021/12/19 11:34:11;;;;;;;37.47;24.85;;;17.80;58.60;;;;;;5006279;28;20157;-68
2021/12/19 11:36:39;;;;;;;42.00;22.10;;;17.80;58.50;;;;;;5006276;28;20065;-63
2021/12/19 11:39:05;;;;;;;42.83;21.80;;;17.80;58.50;;;;;;5004964;28;20225;-64
2021/12/19 11:41:31;;;;;;;34.97;22.15;;;17.80;58.90;;;;;;5004452;28;20635;-64
2021/12/19 11:44:00;;;;;;;30.48;21.98;;;17.80;59.60;;;;;;5002255;28;20027;-63
2021/12/19 11:46:46;;;;;;;29.55;19.98;;;17.80;60.10;;;;;;5009270;28;20025;-65
2021/12/19 11:49:18;;;;;;;30.13;18.73;;;17.80;60.70;;;;;;5000568;28;20022;-63
2021/12/19 11:51:43;;;;;;;27.75;17.05;;;17.80;61.60;;;;;;5012427;28;20033;-63
2021/12/19 11:54:13;;;;;;;23.27;15.90;;;17.80;61.80;;;;;;5005559;28;20029;-66
2021/12/19 11:56:39;;;;;;;25.33;15.02;;;17.80;62.20;;;;;;5006807;28;20514;-64
2021/12/19 11:59:16;;;;;;;25.70;15.27;;;17.90;62.50;;;;;;5005798;28;20030;-64
2021/12/19 12:01:42;;;;;;;24.15;14.65;;;17.90;62.60;;;;;;5005020;28;20022;-65
2021/12/19 12:04:15;;;;;;;18.50;12.18;;;17.90;62.60;;;;;;5005992;28;20397;-64
2021/12/19 12:07:00;;;;;;;19.35;12.75;;;17.90;62.50;;;;;;5001353;28;20026;-63
2021/12/19 12:09:27;;;;;;;17.55;11.18;;;17.90;62.60;;;;;;5005469;28;20073;-65
2021/12/19 12:12:07;;;;;;;22.08;11.98;;;17.90;62.50;;;;;;5005957;28;20026;-64
2021/12/19 12:14:42;;;;;;;20.90;10.90;;;17.90;62.60;;;;;;5006280;28;20076;-65
2021/12/19 12:17:13;;;;;;;15.68;10.57;;;17.90;62.60;;;;;;5005627;28;20490;-64
2021/12/19 12:19:41;;;;;;;14.82;10.20;;;17.90;63.00;;;;;;5005659;28;20039;-64
2021/12/19 12:25:20;;;;;;;14.63;9.23;;;17.90;63.40;;;;;;5005700;28;20461;-65
2021/12/19 12:27:50;;;;;;;15.05;9.25;;;17.90;63.30;;;;;;5006089;28;20034;-63
2021/12/19 12:30:24;;;;;;;12.35;9.18;;;17.90;63.00;;;;;;5001199;28;20030;-63
2021/12/19 12:32:49;;;;;;;13.80;10.07;;;17.90;62.80;;;;;;5005442;28;20030;-63
2021/12/19 12:35:15;;;;;;;14.30;9.13;;;17.80;62.60;;;;;;5005322;28;20034;-64
2021/12/19 12:37:41;;;;;;;14.52;8.45;;;17.80;62.30;;;;;;5005776;28;20037;-65
2021/12/19 12:40:23;;;;;;;11.90;8.63;;;17.80;62.10;;;;;;5005375;28;20037;-64
2021/12/19 12:42:57;;;;;;;13.32;8.27;;;17.80;62.00;;;;;;5005531;28;20509;-67
2021/12/19 12:45:24;;;;;;;10.20;7.03;;;17.70;61.80;;;;;;5005512;28;20033;-65
2021/12/19 12:47:50;;;;;;;12.02;7.13;;;17.70;61.70;;;;;;5005548;28;20030;-62
2021/12/19 12:50:15;;;;;;;10.07;6.60;;;17.70;61.60;;;;;;5020286;23;20065;-62
2021/12/19 12:52:41;;;;;;;11.77;6.85;;;17.70;61.50;;;;;;5018137;28;20049;-51
2021/12/19 12:55:07;;;;;;;11.07;6.93;;;17.70;61.40;;;;;;5006785;28;20125;-58
2021/12/19 12:57:35;;;;;;;11.70;7.07;;;17.70;61.30;;;;;;4999525;28;20050;-57
2021/12/19 13:00:00;;;;;;;9.13;5.88;;;17.70;61.20;;;;;;4996865;28;20137;-60
2021/12/19 13:02:31;;;;;;;8.63;5.32;;;17.70;61.10;;;;;;4996462;28;20108;-60
2021/12/19 13:05:00;;;;;;;8.75;6.43;;;17.80;62.90;;;;;;4980779;28;20034;-48
2021/12/19 13:07:25;;;;;;;9.80;6.03;;;17.80;63.60;;;;;;5000879;28;20121;-53
2021/12/19 13:09:55;;;;;;;14.13;6.57;;;17.80;63.90;;;;;;4999843;28;20441;-49
2021/12/19 13:12:47;;;;;;;9.60;5.97;;;17.90;64.30;;;;;;4997984;28;20080;-55
2021/12/19 13:15:14;;;;;;;8.90;6.63;;;17.90;64.40;;;;;;4994351;28;20378;-60
2021/12/19 13:17:50;;;;;;;10.15;6.57;;;17.90;64.50;;;;;;5001803;28;20175;-54
2021/12/19 13:20:20;;;;;;;10.15;6.70;;;17.90;64.70;;;;;;5003511;28;20034;-51
2021/12/19 13:22:51;;;;;;;12.45;7.00;;;17.90;64.50;;;;;;5005970;28;20517;-51
2021/12/19 13:25:22;;;;;;;10.32;6.75;;;17.90;64.60;;;;;;5003779;28;20060;-51
2021/12/19 13:27:55;;;;;;;9.20;6.70;;;17.90;64.70;;;;;;5003634;28;20117;-52
2021/12/19 13:30:21;;;;;;;10.70;5.82;;;17.90;64.90;;;;;;5004617;28;20033;-59
2021/12/19 13:32:56;;;;;;;12.88;5.95;;;17.90;64.90;;;;;;5005426;28;20071;-59
2021/12/19 13:35:25;;;;;;;;;;;17.90;64.70;;;;;;5005566;28;20060;-52
2021/12/19 13:37:54;;;;;;;7.85;5.15;;;17.90;64.10;;;;;;5005016;28;19932;-48
2021/12/19 13:40:21;;;;;;;8.43;5.25;;;17.90;63.20;;;;;;5004320;28;20091;-57
2021/12/19 13:42:52;;;;;;;7.25;4.43;;;17.90;62.70;;;;;;4997117;28;20022;-53